Time;durP1;ratioP1;P1;durP2;ratioP2;P2;SDS_P1;SDS_P2;PMS_P1;PMS_P2;Temp;Humidity;BMP_temperature;BMP_pressure;BME280_temperature;BME280_humidity;BME280_pressure;Samples;Min_cycle;Max_cycle;Signal;HPM_P1;HPM_P2
2023/06/30 00:02:06;;;;;;;19.67;12.53;;;19.30;93.50;;;;;;5039346;28;20500;-58
2023/06/30 00:04:32;;;;;;;20.70;12.17;;;19.30;94.10;;;;;;5034551;28;20430;-58
2023/06/30 00:07:01;;;;;;;19.60;12.63;;;19.20;94.60;;;;;;5041376;28;20486;-58
2023/06/30 00:09:27;;;;;;;20.57;12.53;;;19.20;95.30;;;;;;5044625;28;20477;-58
2023/06/30 00:11:55;;;;;;;22.20;11.90;;;19.20;95.60;;;;;;5037529;28;20925;-58
2023/06/30 00:14:21;;;;;;;17.93;11.63;;;19.20;95.70;;;;;;5036764;28;20426;-58
2023/06/30 00:16:49;;;;;;;17.73;11.30;;;19.20;96.00;;;;;;5042319;28;20449;-59
2023/06/30 00:19:15;;;;;;;18.33;11.83;;;19.10;96.30;;;;;;5035376;28;20469;-57
2023/06/30 00:21:41;;;;;;;19.87;11.87;;;19.10;96.60;;;;;;5040460;28;20426;-59
2023/06/30 00:24:12;;;;;;;19.83;12.90;;;19.10;97.00;;;;;;5039824;28;20186;-58
2023/06/30 00:26:38;;;;;;;19.43;12.30;;;19.10;97.60;;;;;;5036597;28;20953;-57
2023/06/30 00:29:04;;;;;;;19.93;11.17;;;19.10;98.10;;;;;;5041032;28;20450;-58
2023/06/30 00:31:29;;;;;;;23.00;13.20;;;19.10;98.20;;;;;;5039865;28;20429;-59
2023/06/30 00:33:55;;;;;;;20.10;12.10;;;19.00;97.80;;;;;;5036829;28;20175;-58
2023/06/30 00:36:21;;;;;;;20.97;13.23;;;19.00;97.90;;;;;;5040127;28;20909;-59
2023/06/30 00:38:47;;;;;;;20.23;11.83;;;18.90;98.60;;;;;;5036489;28;20208;-58
2023/06/30 00:41:12;;;;;;;19.87;13.07;;;18.90;99.00;;;;;;5038757;28;20497;-58
2023/06/30 00:43:38;;;;;;;25.70;12.70;;;18.90;99.90;;;;;;5048505;28;20171;-58
2023/06/30 00:46:05;;;;;;;18.87;12.23;;;18.90;99.90;;;;;;5044165;28;20222;-58
2023/06/30 00:48:31;;;;;;;18.83;11.23;;;18.90;99.90;;;;;;5041965;28;20171;-58
2023/06/30 00:50:57;;;;;;;20.70;12.83;;;18.80;99.90;;;;;;5042654;28;20436;-59
2023/06/30 00:53:24;;;;;;;24.90;13.13;;;18.80;99.90;;;;;;5042038;28;20815;-59
2023/06/30 00:55:50;;;;;;;23.37;13.10;;;18.70;99.90;;;;;;5036899;28;20187;-59
2023/06/30 00:58:16;;;;;;;24.83;14.07;;;18.70;99.90;;;;;;5034351;28;20472;-59
2023/06/30 01:00:41;;;;;;;25.40;13.00;;;18.70;99.90;;;;;;5035123;28;20223;-57
2023/06/30 01:03:25;;;;;;;23.77;13.60;;;18.60;99.90;;;;;;5034692;28;20936;-58
2023/06/30 01:06:06;;;;;;;19.50;12.77;;;18.60;99.90;;;;;;5041207;28;20175;-58
2023/06/30 01:08:43;;;;;;;23.40;12.97;;;18.60;99.90;;;;;;5033450;28;20429;-57
2023/06/30 01:11:10;;;;;;;22.47;14.30;;;18.60;99.90;;;;;;5035442;28;20456;-59
2023/06/30 01:13:36;;;;;;;25.37;14.33;;;18.50;99.90;;;;;;5043499;28;20433;-58
2023/06/30 01:16:04;;;;;;;25.27;14.37;;;18.60;99.90;;;;;;5042056;28;20421;-59
2023/06/30 01:18:32;;;;;;;23.43;12.93;;;18.50;99.90;;;;;;5040411;28;20524;-58
2023/06/30 01:20:59;;;;;;;23.37;13.00;;;18.50;99.90;;;;;;5034996;28;20426;-58
2023/06/30 01:23:31;;;;;;;23.33;13.53;;;18.40;99.90;;;;;;5037529;28;20965;-58
2023/06/30 01:25:58;;;;;;;32.37;14.00;;;18.40;99.90;;;;;;5036604;28;20440;-59
2023/06/30 01:28:27;;;;;;;21.27;13.13;;;18.30;99.90;;;;;;5031098;28;20519;-57
2023/06/30 01:30:54;;;;;;;21.80;13.10;;;18.30;99.90;;;;;;5034838;28;20462;-58
2023/06/30 01:33:21;;;;;;;19.10;12.70;;;18.20;99.90;;;;;;5038997;28;20922;-59
2023/06/30 01:35:47;;;;;;;25.23;14.93;;;18.20;99.90;;;;;;5041818;28;20438;-58
2023/06/30 01:38:12;;;;;;;25.43;13.70;;;18.20;99.90;;;;;;5037000;28;20950;-59
2023/06/30 01:40:38;;;;;;;25.43;12.70;;;18.10;99.90;;;;;;5031091;28;20475;-58
2023/06/30 01:43:04;;;;;;;22.93;12.37;;;18.10;99.90;;;;;;5033340;28;20179;-58
2023/06/30 01:45:31;;;;;;;22.33;13.40;;;18.10;99.90;;;;;;5036363;28;20628;-58
2023/06/30 01:47:57;;;;;;;26.00;14.33;;;18.00;99.90;;;;;;5041407;28;20213;-58
2023/06/30 01:50:24;;;;;;;25.10;13.80;;;18.00;99.90;;;;;;5036795;28;20468;-58
2023/06/30 01:52:50;;;;;;;20.53;13.47;;;17.90;99.90;;;;;;5032553;28;20484;-58
2023/06/30 01:55:16;;;;;;;24.73;14.53;;;17.90;99.90;;;;;;5034909;28;20434;-57
2023/06/30 01:57:42;;;;;;;21.93;14.23;;;17.80;99.90;;;;;;5035444;28;20660;-58
2023/06/30 02:00:08;;;;;;;22.67;13.23;;;17.90;99.90;;;;;;5034859;28;20492;-58
2023/06/30 02:02:33;;;;;;;19.53;13.00;;;17.90;99.90;;;;;;5029598;28;20179;-58
2023/06/30 02:04:59;;;;;;;25.13;13.30;;;17.90;99.90;;;;;;5042433;28;20433;-58
2023/06/30 02:07:25;;;;;;;22.50;12.03;;;17.90;99.90;;;;;;5037570;28;20907;-57
2023/06/30 02:09:50;;;;;;;21.70;12.83;;;17.90;99.90;;;;;;5039974;28;20187;-59
2023/06/30 02:12:16;;;;;;;22.93;12.73;;;17.90;99.90;;;;;;5037222;28;20191;-57
2023/06/30 02:14:42;;;;;;;21.50;13.10;;;17.90;99.90;;;;;;5032106;28;20625;-59
2023/06/30 02:17:10;;;;;;;21.87;14.23;;;17.90;99.90;;;;;;5030506;28;20164;-58
2023/06/30 02:19:36;;;;;;;23.57;13.13;;;17.90;99.90;;;;;;5040198;28;20261;-59
2023/06/30 02:22:02;;;;;;;20.80;13.83;;;17.90;99.90;;;;;;5039399;28;20918;-58
2023/06/30 02:24:27;;;;;;;25.30;13.53;;;18.00;99.90;;;;;;5039157;28;20179;-58
2023/06/30 02:26:54;;;;;;;20.60;13.63;;;17.90;99.90;;;;;;5032512;28;20421;-58
2023/06/30 02:29:20;;;;;;;26.70;14.10;;;17.90;99.90;;;;;;5042196;28;20237;-58
2023/06/30 02:31:46;;;;;;;22.60;13.97;;;17.90;99.90;;;;;;5038813;28;20492;-59
2023/06/30 02:34:11;;;;;;;25.83;14.40;;;17.90;99.90;;;;;;5033176;28;20433;-58
2023/06/30 02:36:37;;;;;;;22.23;13.70;;;17.90;99.90;;;;;;5044320;28;20167;-58
2023/06/30 02:39:03;;;;;;;24.73;14.00;;;17.80;99.90;;;;;;5034297;28;20786;-58
2023/06/30 02:41:28;;;;;;;23.80;13.23;;;17.80;99.90;;;;;;5032572;28;20174;-58
2023/06/30 02:43:54;;;;;;;25.00;13.40;;;17.80;99.90;;;;;;5037789;28;20704;-58
2023/06/30 02:46:19;;;;;;;24.13;13.20;;;17.80;99.90;;;;;;5043499;28;20202;-58
2023/06/30 02:48:45;;;;;;;23.93;13.40;;;17.70;99.90;;;;;;5027531;28;20282;-57
2023/06/30 02:51:10;;;;;;;25.00;14.13;;;17.70;99.90;;;;;;5035994;28;20659;-58
2023/06/30 02:53:36;;;;;;;23.13;13.50;;;17.70;99.90;;;;;;5034356;28;20198;-57
2023/06/30 02:56:02;;;;;;;23.70;12.83;;;17.70;99.90;;;;;;5035193;28;20172;-58
2023/06/30 02:58:27;;;;;;;22.50;13.07;;;17.70;99.90;;;;;;5037032;28;20175;-56
2023/06/30 03:00:55;;;;;;;27.27;14.03;;;17.80;99.90;;;;;;5033493;28;20176;-58
2023/06/30 03:03:20;;;;;;;20.70;12.43;;;17.80;99.90;;;;;;5035828;28;20182;-57
2023/06/30 03:05:46;;;;;;;22.00;13.77;;;17.80;99.90;;;;;;5032375;28;20822;-57
2023/06/30 03:08:11;;;;;;;20.27;13.20;;;17.80;99.90;;;;;;5037762;28;20244;-58
2023/06/30 03:10:37;;;;;;;25.90;14.47;;;17.80;99.90;;;;;;5043369;28;20204;-57
2023/06/30 03:13:03;;;;;;;20.97;12.77;;;17.80;99.90;;;;;;5038086;28;20742;-57
2023/06/30 03:15:28;;;;;;;27.40;15.20;;;17.80;99.90;;;;;;5034615;28;20167;-57
2023/06/30 03:17:55;;;;;;;21.17;13.07;;;17.80;99.90;;;;;;5034251;28;20629;-56
2023/06/30 03:20:21;;;;;;;24.27;14.40;;;17.80;99.90;;;;;;5038301;28;20203;-58
2023/06/30 03:22:46;;;;;;;24.43;14.90;;;17.80;99.90;;;;;;5038839;28;20429;-57
2023/06/30 03:25:12;;;;;;;22.73;14.70;;;17.80;99.90;;;;;;5036490;28;20172;-57
2023/06/30 03:27:38;;;;;;;25.33;14.53;;;17.80;99.90;;;;;;5036068;28;20648;-59
2023/06/30 03:30:04;;;;;;;21.43;14.40;;;17.80;99.90;;;;;;5036830;28;20196;-58
2023/06/30 03:32:31;;;;;;;27.03;14.13;;;17.80;99.90;;;;;;5035939;28;20756;-57
2023/06/30 03:34:56;;;;;;;25.00;15.43;;;17.80;99.90;;;;;;5032727;28;20451;-57
2023/06/30 03:37:22;;;;;;;25.30;15.53;;;17.80;99.90;;;;;;5037933;28;20838;-57
2023/06/30 03:39:48;;;;;;;21.90;14.17;;;17.80;99.90;;;;;;5031710;28;20208;-57
2023/06/30 03:42:13;;;;;;;22.63;13.50;;;17.80;99.90;;;;;;5037469;28;20188;-57
2023/06/30 03:44:39;;;;;;;20.77;13.00;;;17.80;99.90;;;;;;5044519;28;20179;-57
2023/06/30 03:47:05;;;;;;;21.23;13.93;;;17.80;99.90;;;;;;5035862;28;20202;-57
2023/06/30 03:49:31;;;;;;;19.67;12.00;;;17.80;99.90;;;;;;5038213;28;20294;-56
2023/06/30 03:51:56;;;;;;;24.50;13.20;;;17.70;99.90;;;;;;5038172;28;20790;-57
2023/06/30 03:54:22;;;;;;;20.20;13.63;;;17.70;99.90;;;;;;5045429;28;20231;-57
2023/06/30 03:56:47;;;;;;;21.00;13.13;;;17.70;99.90;;;;;;5042487;28;20179;-57
2023/06/30 03:59:13;;;;;;;23.20;13.77;;;17.70;99.90;;;;;;5035962;28;20220;-57
2023/06/30 04:01:40;;;;;;;25.20;14.43;;;17.70;99.90;;;;;;5037823;28;20175;-58
2023/06/30 04:04:06;;;;;;;21.83;13.53;;;17.70;99.90;;;;;;5038996;28;20437;-59
2023/06/30 04:06:33;;;;;;;21.10;13.40;;;17.70;99.90;;;;;;5040788;28;20437;-59
2023/06/30 04:08:59;;;;;;;22.43;13.47;;;17.70;99.90;;;;;;5036752;28;20458;-59
2023/06/30 04:11:25;;;;;;;24.90;14.13;;;17.70;99.90;;;;;;5036414;28;20437;-57
2023/06/30 04:13:51;;;;;;;22.00;13.67;;;17.70;99.90;;;;;;5038027;28;22782;-57
2023/06/30 04:16:17;;;;;;;24.93;15.43;;;17.60;99.90;;;;;;5038821;28;20598;-59
2023/06/30 04:18:43;;;;;;;24.50;13.90;;;17.60;99.90;;;;;;5028723;28;20522;-58
2023/06/30 04:21:09;;;;;;;23.73;14.00;;;17.60;99.90;;;;;;5029046;28;20922;-57
2023/06/30 04:23:35;;;;;;;23.70;14.97;;;17.60;99.90;;;;;;5039434;28;20441;-58
2023/06/30 04:26:01;;;;;;;23.30;14.10;;;17.60;99.90;;;;;;5037597;28;22410;-58
2023/06/30 04:28:27;;;;;;;29.23;15.13;;;17.60;99.90;;;;;;5039007;28;20548;-57
2023/06/30 04:30:52;;;;;;;25.77;14.67;;;17.60;99.90;;;;;;5038508;28;20898;-55
2023/06/30 04:33:18;;;;;;;27.03;14.47;;;17.60;99.90;;;;;;5036003;28;20498;-57
2023/06/30 04:35:43;;;;;;;26.67;14.80;;;17.70;99.90;;;;;;5032594;28;20539;-56
2023/06/30 04:38:09;;;;;;;24.10;14.33;;;17.70;99.90;;;;;;5041697;28;20282;-56
2023/06/30 04:40:35;;;;;;;21.50;13.83;;;17.70;99.90;;;;;;5024382;28;20252;-56
2023/06/30 04:43:02;;;;;;;26.93;15.80;;;17.70;99.90;;;;;;5030434;28;20525;-57
2023/06/30 04:45:28;;;;;;;31.93;19.33;;;17.60;99.90;;;;;;5028577;28;20186;-58
2023/06/30 04:47:53;;;;;;;30.20;19.13;;;17.60;99.90;;;;;;5034921;28;20457;-59
2023/06/30 04:50:19;;;;;;;35.13;16.93;;;17.60;99.90;;;;;;5036615;28;20188;-57
2023/06/30 04:52:44;;;;;;;28.17;16.70;;;17.60;99.90;;;;;;5047545;28;20256;-58
2023/06/30 04:55:10;;;;;;;26.87;16.63;;;17.70;99.90;;;;;;5040705;28;20174;-58
2023/06/30 04:57:36;;;;;;;28.63;16.40;;;17.70;99.90;;;;;;5038894;28;20506;-58
2023/06/30 05:00:02;;;;;;;28.63;18.00;;;17.70;99.90;;;;;;5040046;28;20187;-58
2023/06/30 05:02:27;;;;;;;27.77;16.40;;;17.80;99.90;;;;;;5034343;28;20175;-57
2023/06/30 05:04:53;;;;;;;24.00;15.07;;;17.70;99.90;;;;;;5039486;28;21061;-56
2023/06/30 05:07:19;;;;;;;28.37;16.57;;;17.70;99.90;;;;;;5045077;28;20663;-57
2023/06/30 05:09:46;;;;;;;25.80;15.90;;;17.70;99.90;;;;;;5039005;28;22230;-57
2023/06/30 05:12:12;;;;;;;28.33;16.03;;;17.70;99.90;;;;;;5040965;28;20753;-58
2023/06/30 05:14:38;;;;;;;30.33;16.53;;;17.70;99.90;;;;;;5043949;28;20435;-58
2023/06/30 05:17:04;;;;;;;27.20;16.07;;;17.70;99.90;;;;;;5041228;28;20537;-58
2023/06/30 05:19:29;;;;;;;29.40;16.20;;;17.70;99.90;;;;;;5039638;28;20198;-58
2023/06/30 05:21:55;;;;;;;32.70;17.90;;;17.70;99.90;;;;;;5037647;28;20174;-59
2023/06/30 05:24:20;;;;;;;25.13;16.13;;;17.70;99.90;;;;;;5042062;28;20302;-58
2023/06/30 05:26:46;;;;;;;26.70;16.10;;;17.70;99.90;;;;;;5039326;28;20323;-60
2023/06/30 05:29:12;;;;;;;29.60;16.80;;;17.80;99.90;;;;;;5037532;28;20195;-51
2023/06/30 05:31:37;;;;;;;28.77;16.43;;;17.80;99.90;;;;;;5037107;28;20171;-59
2023/06/30 05:34:03;;;;;;;33.83;16.33;;;17.80;99.90;;;;;;5043365;28;20317;-58
2023/06/30 05:36:30;;;;;;;26.90;16.60;;;17.80;99.90;;;;;;5032483;28;20263;-59
2023/06/30 05:38:56;;;;;;;25.30;15.10;;;17.80;99.90;;;;;;5026402;28;20305;-57
2023/06/30 05:41:22;;;;;;;23.47;14.70;;;17.80;99.90;;;;;;5037268;28;20522;-61
2023/06/30 05:43:47;;;;;;;28.23;14.70;;;17.80;99.90;;;;;;5034603;28;20532;-59
2023/06/30 05:46:13;;;;;;;26.53;14.23;;;17.70;99.90;;;;;;5029028;28;20693;-60
2023/06/30 05:48:39;;;;;;;37.90;17.50;;;17.70;99.90;;;;;;5029165;28;20233;-54
2023/06/30 05:51:04;;;;;;;40.10;17.80;;;17.70;99.90;;;;;;5029657;28;20526;-55
2023/06/30 05:53:30;;;;;;;31.63;15.70;;;17.70;99.90;;;;;;5025274;28;20171;-57
2023/06/30 05:55:55;;;;;;;29.97;16.27;;;17.70;99.90;;;;;;5031521;28;20197;-57
2023/06/30 05:58:23;;;;;;;28.60;15.87;;;17.60;99.90;;;;;;5031184;28;20186;-57
2023/06/30 06:00:48;;;;;;;26.37;14.70;;;17.70;99.90;;;;;;5032052;28;20180;-58
2023/06/30 06:03:14;;;;;;;28.20;14.70;;;17.70;99.90;;;;;;5031358;28;20435;-58
2023/06/30 06:05:40;;;;;;;29.00;14.63;;;17.70;99.90;;;;;;5032109;28;20201;-57
2023/06/30 06:08:05;;;;;;;29.30;16.83;;;17.70;99.90;;;;;;5028390;28;20192;-56
2023/06/30 06:10:31;;;;;;;27.80;15.30;;;17.70;99.90;;;;;;5032266;28;20341;-58
2023/06/30 06:12:56;;;;;;;22.73;13.50;;;17.70;99.90;;;;;;5033250;28;20198;-56
2023/06/30 06:15:22;;;;;;;26.47;15.97;;;17.70;99.90;;;;;;5034020;28;20629;-59
2023/06/30 06:17:48;;;;;;;29.10;16.13;;;17.60;99.90;;;;;;5039097;28;20190;-57
2023/06/30 06:20:13;;;;;;;26.33;14.23;;;17.70;99.90;;;;;;5044574;28;20256;-57
2023/06/30 06:22:39;;;;;;;19.40;13.00;;;17.70;99.90;;;;;;5034051;28;20742;-58
2023/06/30 06:25:05;;;;;;;19.50;13.37;;;17.70;99.90;;;;;;5036319;28;20179;-57
2023/06/30 06:27:34;;;;;;;21.77;13.03;;;17.60;99.90;;;;;;5033839;28;20225;-57
2023/06/30 06:30:00;;;;;;;20.37;12.83;;;17.60;99.90;;;;;;5038263;28;20475;-58
2023/06/30 06:32:26;;;;;;;19.67;12.27;;;17.60;99.90;;;;;;5037904;28;21189;-57
2023/06/30 06:34:51;;;;;;;18.20;11.80;;;17.50;99.90;;;;;;5033825;28;20175;-57
2023/06/30 06:37:17;;;;;;;19.20;11.27;;;17.50;99.90;;;;;;5037672;28;20190;-57
2023/06/30 06:39:42;;;;;;;22.37;12.50;;;17.40;99.90;;;;;;5035841;28;20207;-59
2023/06/30 06:42:08;;;;;;;21.60;13.10;;;17.40;99.90;;;;;;5029416;28;20179;-57
2023/06/30 06:44:34;;;;;;;19.47;11.93;;;17.40;99.90;;;;;;5033652;28;20233;-56
2023/06/30 06:47:37;;;;;;;24.53;12.40;;;17.40;99.90;;;;;;5035675;28;20495;-58
2023/06/30 06:50:04;;;;;;;21.13;12.20;;;17.40;99.90;;;;;;5031329;28;20208;-58
2023/06/30 06:52:29;;;;;;;22.57;13.03;;;17.30;99.90;;;;;;5028427;28;20534;-58
2023/06/30 06:54:55;;;;;;;24.70;12.70;;;17.30;99.90;;;;;;5036482;28;20537;-57
2023/06/30 06:57:20;;;;;;;23.13;12.57;;;17.30;99.90;;;;;;5036230;28;20176;-55
2023/06/30 06:59:46;;;;;;;22.77;12.40;;;17.30;99.90;;;;;;5035928;28;20190;-58
2023/06/30 07:02:11;;;;;;;18.97;12.20;;;17.30;99.90;;;;;;5031567;28;20172;-58
2023/06/30 07:04:38;;;;;;;24.20;12.70;;;17.30;99.90;;;;;;5037809;28;20195;-58
2023/06/30 07:07:03;;;;;;;27.20;12.93;;;17.30;99.90;;;;;;5034958;28;20202;-58
2023/06/30 07:09:29;;;;;;;25.77;13.80;;;17.40;99.90;;;;;;5036928;28;20462;-58
2023/06/30 07:11:55;;;;;;;22.70;13.07;;;17.50;99.90;;;;;;5033329;28;20824;-58
2023/06/30 07:14:21;;;;;;;27.33;13.60;;;17.60;99.90;;;;;;5031700;28;20191;-57
2023/06/30 07:16:48;;;;;;;23.00;13.40;;;17.70;99.90;;;;;;5037568;28;20197;-58
2023/06/30 07:19:13;;;;;;;25.53;14.43;;;17.80;99.90;;;;;;5032839;28;20987;-61
2023/06/30 07:21:39;;;;;;;27.57;15.23;;;17.80;99.90;;;;;;5039159;28;20448;-59
2023/06/30 07:24:05;;;;;;;20.90;13.60;;;17.90;99.90;;;;;;5035462;28;20180;-58
2023/06/30 07:26:31;;;;;;;25.50;14.33;;;17.90;99.90;;;;;;5040452;28;20214;-59
2023/06/30 07:28:57;;;;;;;26.57;14.20;;;17.90;99.90;;;;;;5040116;28;20211;-59
2023/06/30 07:31:23;;;;;;;28.33;14.37;;;17.90;99.90;;;;;;5036457;28;20486;-57
2023/06/30 07:33:48;;;;;;;27.23;14.40;;;17.80;99.90;;;;;;5036304;28;20171;-58
2023/06/30 07:36:14;;;;;;;26.17;14.23;;;17.80;99.90;;;;;;5041411;28;20270;-57
2023/06/30 07:38:40;;;;;;;29.80;15.33;;;17.80;99.90;;;;;;5034280;28;20196;-58
2023/06/30 07:41:05;;;;;;;31.33;15.20;;;17.70;99.90;;;;;;5036740;28;20645;-60
2023/06/30 07:43:31;;;;;;;29.73;14.73;;;17.70;99.90;;;;;;5036830;28;20179;-59
2023/06/30 07:45:56;;;;;;;26.57;14.40;;;17.70;99.90;;;;;;5039106;28;20636;-59
2023/06/30 07:48:22;;;;;;;25.13;14.63;;;17.70;99.90;;;;;;5038415;28;20196;-59
2023/06/30 07:50:48;;;;;;;25.77;14.50;;;17.70;99.90;;;;;;5036991;28;20180;-59
2023/06/30 07:53:14;;;;;;;25.53;14.90;;;17.70;99.90;;;;;;5032086;28;20434;-58
2023/06/30 07:55:39;;;;;;;22.63;13.90;;;17.70;99.90;;;;;;5035793;28;20171;-59
2023/06/30 07:58:05;;;;;;;25.87;14.57;;;17.80;99.90;;;;;;5038089;28;20249;-56
2023/06/30 08:00:30;;;;;;;26.13;14.47;;;17.80;99.90;;;;;;5043635;28;20202;-57
2023/06/30 08:02:56;;;;;;;23.00;14.37;;;17.80;99.90;;;;;;5034778;28;21934;-57
2023/06/30 08:05:22;;;;;;;26.10;15.07;;;17.90;99.90;;;;;;5038718;28;20203;-58
2023/06/30 08:07:47;;;;;;;26.30;14.90;;;17.90;99.90;;;;;;5046127;28;20211;-58
2023/06/30 08:10:13;;;;;;;26.73;14.40;;;17.90;99.90;;;;;;5049178;28;20295;-57
2023/06/30 08:12:39;;;;;;;26.50;14.87;;;17.90;99.90;;;;;;5046817;28;20179;-58
2023/06/30 08:15:05;;;;;;;25.13;13.57;;;17.90;99.90;;;;;;5042915;28;20511;-57
2023/06/30 08:17:31;;;;;;;25.07;14.57;;;18.00;99.90;;;;;;5037405;28;20709;-57
2023/06/30 08:19:56;;;;;;;29.97;12.77;;;18.00;99.90;;;;;;5044321;28;20465;-51
2023/06/30 08:22:22;;;;;;;27.30;13.10;;;18.00;99.90;;;;;;5033086;28;20210;-52
2023/06/30 08:24:48;;;;;;;19.90;12.37;;;18.10;99.90;;;;;;5038484;28;20194;-53
2023/06/30 08:27:13;;;;;;;27.10;12.73;;;18.10;99.90;;;;;;5047302;28;20248;-53
2023/06/30 08:29:39;;;;;;;19.73;12.80;;;18.10;99.90;;;;;;5049141;28;21035;-52
2023/06/30 08:32:05;;;;;;;21.57;13.20;;;18.10;99.90;;;;;;5037722;28;20176;-54
2023/06/30 08:34:31;;;;;;;21.67;12.77;;;18.00;99.90;;;;;;5045121;28;20179;-51
2023/06/30 08:36:57;;;;;;;20.20;12.70;;;18.00;99.90;;;;;;5042869;28;20931;-52
2023/06/30 08:39:26;;;;;;;22.57;12.87;;;18.00;99.90;;;;;;5037324;28;20716;-52
2023/06/30 08:41:54;;;;;;;22.30;12.97;;;18.00;99.90;;;;;;5031321;28;20533;-52
2023/06/30 08:44:25;;;;;;;22.57;12.67;;;18.00;99.90;;;;;;5037683;28;20482;-51
2023/06/30 08:46:53;;;;;;;20.90;11.97;;;18.10;99.90;;;;;;5041026;28;20444;-52
2023/06/30 08:49:21;;;;;;;18.77;11.93;;;18.10;99.90;;;;;;5032861;28;21448;-53
2023/06/30 08:51:47;;;;;;;20.17;12.30;;;18.10;99.90;;;;;;5031766;28;20500;-51
2023/06/30 08:54:13;;;;;;;19.00;11.60;;;18.10;99.90;;;;;;5036402;28;20435;-53
2023/06/30 08:56:42;;;;;;;21.17;12.20;;;18.10;99.90;;;;;;5034089;28;20206;-52
2023/06/30 08:59:08;;;;;;;19.80;11.47;;;18.20;99.90;;;;;;5037625;28;20549;-55
2023/06/30 09:01:33;;;;;;;24.37;13.47;;;18.20;99.90;;;;;;5043842;28;20461;-52
2023/06/30 09:04:00;;;;;;;23.60;13.13;;;18.30;99.90;;;;;;5035079;28;20827;-52
2023/06/30 09:06:26;;;;;;;19.17;13.23;;;18.30;99.90;;;;;;5038343;28;20202;-52
2023/06/30 09:08:59;;;;;;;22.13;13.23;;;18.20;99.90;;;;;;5039430;28;20477;-51
2023/06/30 09:11:29;;;;;;;23.20;13.87;;;18.20;99.90;;;;;;5040010;28;20430;-54
2023/06/30 09:14:01;;;;;;;20.27;12.93;;;18.20;99.90;;;;;;5037572;28;20440;-52
2023/06/30 09:16:29;;;;;;;21.03;13.50;;;18.10;99.90;;;;;;5043785;28;20434;-53
2023/06/30 09:18:55;;;;;;;21.47;12.40;;;18.10;99.90;;;;;;5031639;28;20490;-54
2023/06/30 09:21:21;;;;;;;19.60;11.93;;;18.00;99.90;;;;;;5033745;28;20474;-52
2023/06/30 09:23:46;;;;;;;25.10;14.23;;;18.00;99.90;;;;;;5043048;28;20184;-52
2023/06/30 09:26:18;;;;;;;27.67;14.90;;;18.00;99.90;;;;;;5033333;28;20652;-53
2023/06/30 09:28:44;;;;;;;22.80;13.00;;;18.10;99.90;;;;;;5036119;28;20199;-57
2023/06/30 09:31:11;;;;;;;22.53;13.03;;;18.10;99.90;;;;;;5038789;28;20460;-57
2023/06/30 09:33:39;;;;;;;21.83;13.73;;;18.00;99.90;;;;;;5043453;28;20502;-51
2023/06/30 09:36:06;;;;;;;21.63;13.63;;;18.00;99.90;;;;;;5036105;28;20435;-54
2023/06/30 09:38:33;;;;;;;20.43;12.57;;;18.10;99.90;;;;;;5035477;28;20458;-51
2023/06/30 09:41:03;;;;;;;18.67;12.40;;;18.10;99.90;;;;;;5034521;28;20426;-50
2023/06/30 09:43:28;;;;;;;21.53;13.30;;;18.10;99.90;;;;;;5038146;28;20544;-52
2023/06/30 09:45:55;;;;;;;21.20;12.83;;;18.20;99.90;;;;;;5033202;28;21022;-58
2023/06/30 09:48:27;;;;;;;23.63;13.87;;;18.30;99.90;;;;;;5030278;28;20293;-59
2023/06/30 09:50:53;;;;;;;20.27;12.37;;;18.50;99.90;;;;;;5032098;28;20433;-60
2023/06/30 09:53:19;;;;;;;24.10;13.53;;;18.60;99.90;;;;;;5029566;28;20434;-59
2023/06/30 09:55:50;;;;;;;21.10;13.17;;;18.70;99.90;;;;;;5031738;28;20176;-60
2023/06/30 09:58:17;;;;;;;22.07;13.17;;;18.80;99.90;;;;;;5041717;28;20473;-59
2023/06/30 10:00:43;;;;;;;23.17;14.07;;;18.90;99.90;;;;;;5032286;28;20467;-59
2023/06/30 10:03:09;;;;;;;25.20;13.93;;;19.00;99.90;;;;;;5036023;28;20450;-59
2023/06/30 10:05:38;;;;;;;24.70;13.70;;;19.10;99.90;;;;;;5035736;28;20433;-58
2023/06/30 10:08:04;;;;;;;24.20;13.63;;;19.30;99.90;;;;;;5045484;28;20207;-59
2023/06/30 10:10:31;;;;;;;22.90;13.10;;;19.40;99.90;;;;;;5030456;28;20519;-59
2023/06/30 10:12:58;;;;;;;23.20;13.80;;;19.50;99.90;;;;;;5028127;28;20517;-58
2023/06/30 10:15:25;;;;;;;23.00;13.77;;;19.60;99.90;;;;;;5036413;28;20528;-58
2023/06/30 10:17:53;;;;;;;16.00;10.83;;;19.60;99.90;;;;;;5039871;28;20452;-54
2023/06/30 10:20:18;;;;;;;20.27;12.07;;;19.70;99.90;;;;;;5040745;28;20523;-54
2023/06/30 10:22:45;;;;;;;20.50;11.60;;;19.70;99.90;;;;;;5033946;28;20445;-58
2023/06/30 10:25:14;;;;;;;20.70;11.87;;;19.80;99.90;;;;;;5026991;28;20175;-57
2023/06/30 10:27:40;;;;;;;19.60;11.57;;;19.90;99.90;;;;;;5036532;28;21012;-57
2023/06/30 10:30:07;;;;;;;19.80;12.43;;;19.90;99.90;;;;;;5038711;28;20542;-58
2023/06/30 10:32:33;;;;;;;20.57;11.60;;;20.00;99.90;;;;;;5036759;28;20195;-58
2023/06/30 10:34:59;;;;;;;18.80;12.00;;;20.10;99.90;;;;;;5040643;28;20489;-58
2023/06/30 10:37:26;;;;;;;23.07;12.57;;;20.20;99.90;;;;;;5035783;28;20861;-58
2023/06/30 10:39:51;;;;;;;18.10;11.47;;;20.30;99.90;;;;;;5028931;28;20562;-58
2023/06/30 10:42:20;;;;;;;16.73;10.63;;;20.40;99.90;;;;;;5020350;28;20438;-52
2023/06/30 10:44:47;;;;;;;16.60;11.10;;;20.50;99.90;;;;;;5030356;28;20199;-59
2023/06/30 10:47:14;;;;;;;20.83;10.93;;;20.60;99.90;;;;;;5033215;28;20442;-57
2023/06/30 10:49:41;;;;;;;20.20;12.80;;;20.50;99.90;;;;;;5024781;28;21465;-57
2023/06/30 10:52:11;;;;;;;28.13;14.13;;;20.40;99.90;;;;;;5031015;28;20549;-56
2023/06/30 10:54:40;;;;;;;22.73;12.33;;;20.20;99.90;;;;;;5027946;28;20434;-57
2023/06/30 10:57:12;;;;;;;24.63;12.80;;;20.10;99.90;;;;;;5036535;28;20453;-56
2023/06/30 10:59:40;;;;;;;23.40;13.63;;;20.10;99.90;;;;;;5040857;28;20480;-57
2023/06/30 11:02:14;;;;;;;21.13;13.00;;;20.20;99.90;;;;;;5040174;28;20516;-54
2023/06/30 11:04:41;;;;;;;20.87;12.83;;;20.40;99.90;;;;;;5037138;28;20453;-57
2023/06/30 11:07:07;;;;;;;23.60;13.40;;;20.60;99.90;;;;;;5034882;28;20456;-54
2023/06/30 11:09:53;;;;;;;22.33;12.73;;;20.70;99.90;;;;;;5033320;28;20531;-57
2023/06/30 11:12:20;;;;;;;24.23;13.30;;;21.00;99.90;;;;;;5027007;28;21152;-56
2023/06/30 11:14:59;;;;;;;21.77;13.03;;;21.10;99.90;;;;;;5037924;28;20913;-57
2023/06/30 11:17:26;;;;;;;22.13;13.47;;;21.20;99.90;;;;;;5033461;28;20445;-58
2023/06/30 11:20:01;;;;;;;28.80;14.90;;;21.10;99.90;;;;;;5034583;28;20460;-57
2023/06/30 11:22:30;;;;;;;22.37;14.37;;;21.00;99.90;;;;;;5040571;28;20476;-49
2023/06/30 11:24:56;;;;;;;24.83;13.30;;;20.80;99.90;;;;;;5038473;28;20438;-57
2023/06/30 11:27:22;;;;;;;22.60;13.10;;;20.60;99.90;;;;;;5032627;28;20468;-56
2023/06/30 11:29:53;;;;;;;19.27;12.43;;;20.40;99.90;;;;;;5038902;28;20208;-58
2023/06/30 11:32:28;;;;;;;22.17;13.00;;;20.40;99.90;;;;;;5035499;28;20854;-55
2023/06/30 11:34:55;;;;;;;22.40;14.07;;;20.40;99.90;;;;;;5033381;28;20517;-56
2023/06/30 11:37:21;;;;;;;22.33;14.00;;;20.30;99.90;;;;;;5032137;28;20487;-56
2023/06/30 11:39:55;;;;;;;25.37;14.73;;;20.40;99.90;;;;;;5015823;28;20454;-59
2023/06/30 11:42:21;;;;;;;26.30;15.20;;;20.40;99.90;;;;;;5035605;28;20433;-56
2023/06/30 11:44:51;;;;;;;24.53;14.87;;;20.40;99.90;;;;;;5051018;28;20424;-56
2023/06/30 11:47:17;;;;;;;24.70;15.13;;;20.40;99.90;;;;;;5050875;28;20901;-56
2023/06/30 11:49:46;;;;;;;27.90;14.40;;;20.40;99.90;;;;;;5037568;28;20457;-55
2023/06/30 11:52:18;;;;;;;24.93;15.17;;;20.40;99.90;;;;;;5044502;28;20418;-57
2023/06/30 11:54:44;;;;;;;23.67;15.07;;;20.40;99.90;;;;;;5039794;28;20423;-55
2023/06/30 11:57:10;;;;;;;26.77;15.13;;;20.30;99.90;;;;;;5042701;28;20422;-56
2023/06/30 11:59:36;;;;;;;26.00;15.97;;;20.30;99.90;;;;;;5044257;28;20541;-54
2023/06/30 12:02:03;;;;;;;27.50;14.37;;;20.30;99.90;;;;;;5039851;28;20226;-57
2023/06/30 12:04:35;;;;;;;24.10;15.13;;;20.20;99.90;;;;;;5042244;28;20483;-56
2023/06/30 12:07:05;;;;;;;25.70;16.00;;;20.10;99.90;;;;;;5046503;28;20418;-56
2023/06/30 12:09:31;;;;;;;24.20;15.30;;;20.00;99.90;;;;;;5033202;28;20500;-56
2023/06/30 12:11:58;;;;;;;26.37;15.27;;;19.90;99.90;;;;;;5038411;28;20426;-56
2023/06/30 12:14:25;;;;;;;29.03;15.60;;;19.90;99.90;;;;;;5042786;28;20418;-57
2023/06/30 12:16:51;;;;;;;25.60;16.07;;;19.90;99.90;;;;;;5041068;28;20418;-57
2023/06/30 12:19:22;;;;;;;27.67;15.30;;;19.80;99.90;;;;;;5049208;28;20446;-57
2023/06/30 12:22:07;;;;;;;28.37;17.23;;;19.80;99.90;;;;;;5050699;28;20409;-56
2023/06/30 12:24:37;;;;;;;29.80;16.20;;;19.70;99.90;;;;;;5035652;28;20418;-55
2023/06/30 12:27:07;;;;;;;28.70;15.83;;;19.70;99.90;;;;;;5046211;28;20413;-57